Time;durP1;ratioP1;P1;durP2;ratioP2;P2;SDS_P1;SDS_P2;PMS_P1;PMS_P2;Temp;Humidity;BMP_temperature;BMP_pressure;BME280_temperature;BME280_humidity;BME280_pressure;Samples;Min_cycle;Max_cycle;Signal;HPM_P1;HPM_P2
2022/04/25 00:02:24;;;;;;;17.77;7.30;;;;;;;15.62;89.72;98602.66;5053953;28;20257;-85
2022/04/25 00:04:50;;;;;;;21.87;7.40;;;;;;;15.24;90.91;98558.84;5053266;28;20251;-86
2022/04/25 00:07:16;;;;;;;22.90;8.07;;;;;;;14.76;91.05;98496.22;5053297;28;20255;-86
2022/04/25 00:09:43;;;;;;;22.97;7.43;;;;;;;12.83;90.50;98160.25;5053179;28;20170;-86
2022/04/25 00:12:08;;;;;;;18.47;6.40;;;;;;;15.46;89.90;98622.03;5053051;28;20166;-86
2022/04/25 00:14:34;;;;;;;25.07;6.73;;;;;;;14.13;89.09;98383.31;5052861;28;20243;-85
2022/04/25 00:16:59;;;;;;;21.33;6.60;;;;;;;14.83;88.96;98519.25;5053238;28;20274;-86
2022/04/25 00:19:25;;;;;;;16.83;6.33;;;;;;;15.51;89.56;98617.00;5053255;28;20181;-86
2022/04/25 00:21:53;;;;;;;17.73;6.27;;;;;;;14.61;87.90;98490.09;5053136;28;20170;-86
2022/04/25 00:24:19;;;;;;;18.50;6.90;;;;;;;15.50;88.02;98616.13;5053132;28;20253;-86
2022/04/25 00:26:45;;;;;;;23.47;6.77;;;;;;;15.47;87.72;98616.09;5051915;28;20177;-86
2022/04/25 00:29:12;;;;;;;20.03;6.57;;;;;;;15.40;87.91;98621.94;5053049;28;20173;-86
2022/04/25 00:31:38;;;;;;;24.87;7.30;;;;;;;14.14;88.82;98406.28;5052907;28;20561;-87
2022/04/25 00:34:03;;;;;;;21.07;7.03;;;;;;;15.31;88.63;98609.94;5053722;28;20173;-85
2022/04/25 00:36:29;;;;;;;24.10;7.57;;;;;;;14.43;89.59;98457.59;5053339;28;20204;-86
2022/04/25 00:38:54;;;;;;;17.13;6.60;;;;;;;13.43;88.21;98330.63;5052690;28;20180;-87
2022/04/25 00:41:19;;;;;;;20.20;7.10;;;;;;;14.90;88.81;98546.50;5051639;28;20169;-86
2022/04/25 00:43:45;;;;;;;22.17;7.47;;;;;;;13.11;88.96;98270.78;5052913;28;20199;-86
2022/04/25 00:46:21;;;;;;;19.93;6.40;;;;;;;15.28;90.35;98611.56;5052710;28;20606;-86
2022/04/25 00:48:48;;;;;;;17.27;6.53;;;;;;;14.13;88.99;98421.50;5052538;28;20173;-86
2022/04/25 00:51:14;;;;;;;19.97;6.50;;;;;;;15.10;89.02;98604.56;5052194;28;20173;-86
2022/04/25 00:53:39;;;;;;;13.47;6.00;;;;;;;13.86;89.01;98398.22;5052385;28;20166;-86
2022/04/25 00:56:07;;;;;;;17.40;6.57;;;;;;;14.77;89.96;98554.00;5052738;28;20243;-87
2022/04/25 00:58:33;;;;;;;19.73;6.70;;;;;;;15.32;89.60;98621.84;5052546;28;20174;-86
2022/04/25 01:00:59;;;;;;;21.43;6.80;;;;;;;13.64;89.80;98360.56;5084132;28;20188;-86
2022/04/25 01:03:24;;;;;;;17.10;6.67;;;;;;;13.72;89.34;98374.25;5051913;28;20218;-86
2022/04/25 01:05:50;;;;;;;18.20;6.83;;;;;;;15.14;90.03;98620.72;5052417;28;20188;-86
2022/04/25 01:08:15;;;;;;;19.93;7.37;;;;;;;14.35;90.31;98477.00;5052257;28;20248;-86
2022/04/25 01:10:43;;;;;;;18.47;7.07;;;;;;;13.93;91.00;98421.22;5052787;28;20214;-85
2022/04/25 01:13:11;;;;;;;21.30;7.00;;;;;;;12.37;90.01;98167.16;5056481;28;20629;-84
2022/04/25 01:15:37;;;;;;;23.13;7.10;;;;;;;13.39;90.43;98322.06;5062870;28;20228;-85
2022/04/25 01:18:02;;;;;;;22.60;7.10;;;;;;;12.95;90.40;98259.50;5067942;28;20176;-86
2022/04/25 01:20:27;;;;;;;22.93;7.40;;;;;;;14.95;91.91;98618.78;5052583;28;20229;-85
2022/04/25 01:28:49;;;;;;;27.57;9.47;;;;;;;14.89;91.32;98604.25;5030431;28;20727;-86
2022/04/25 01:31:14;;;;;;;24.47;10.27;;;;;;;14.91;91.44;98620.44;5029676;28;20190;-85
2022/04/25 01:33:40;;;;;;;28.80;11.30;;;;;;;14.02;92.08;98487.53;5029778;28;20658;-85
2022/04/25 01:36:05;;;;;;;32.17;12.93;;;;;;;12.98;96.41;98407.75;5030025;28;20217;-86
2022/04/25 01:38:30;;;;;;;30.80;14.57;;;;;;;13.82;98.47;98587.25;5029510;28;20182;-86
2022/04/25 01:40:57;;;;;;;36.83;15.53;;;;;;;11.75;98.72;98274.22;5029369;28;20182;-86
2022/04/25 01:43:22;;;;;;;33.17;14.17;;;;;;;13.63;100.00;98613.16;5029568;28;20198;-85
2022/04/25 01:45:48;;;;;;;27.67;12.33;;;;;;;13.08;100.00;98545.16;5029843;28;20562;-85
2022/04/25 01:48:13;;;;;;;27.50;11.93;;;;;;;11.95;100.00;98360.84;5029786;28;20701;-85
2022/04/25 01:50:39;;;;;;;28.67;12.10;;;;;;;11.44;100.00;98319.94;5030474;28;20188;-86
2022/04/25 01:53:04;;;;;;;32.30;12.47;;;;;;;11.73;100.00;98341.75;5030023;28;20269;-86
2022/04/25 01:55:30;;;;;;;26.67;12.50;;;;;;;13.18;100.00;98606.38;5030115;28;20182;-86
2022/04/25 01:57:55;;;;;;;29.50;13.47;;;;;;;11.53;100.00;98353.13;5029872;28;20205;-85
2022/04/25 02:00:21;;;;;;;28.97;12.90;;;;;;;12.26;100.00;98447.78;5046600;28;20173;-84
2022/04/25 02:02:46;;;;;;;26.80;12.30;;;;;;;10.75;100.00;98213.66;5042411;28;20193;-85
2022/04/25 02:05:11;;;;;;;33.03;12.47;;;;;;;11.29;100.00;98292.56;5052072;28;20168;-86
2022/04/25 02:07:37;;;;;;;29.30;12.70;;;;;;;13.18;100.00;98605.50;5050526;28;20269;-86
2022/04/25 02:10:03;;;;;;;26.23;11.63;;;;;;;11.30;100.00;98286.69;5051998;28;20173;-85
2022/04/25 02:12:29;;;;;;;27.37;11.93;;;;;;;10.70;100.00;98163.75;5051497;28;20183;-85
2022/04/25 02:14:55;;;;;;;27.23;12.50;;;;;;;13.17;100.00;98591.09;5053134;28;20225;-84
2022/04/25 02:17:20;;;;;;;37.37;14.00;;;;;;;11.03;100.00;98218.53;5053732;28;20193;-85
2022/04/25 02:19:46;;;;;;;32.83;14.10;;;;;;;11.10;100.00;98252.44;5055278;28;20170;-84
2022/04/25 02:22:12;;;;;;;32.33;13.40;;;;;;;11.63;100.00;98357.56;5055896;28;20699;-86
2022/04/25 02:24:39;;;;;;;27.47;12.77;;;;;;;13.17;100.00;98604.66;5055406;28;20169;-86
2022/04/25 02:27:05;;;;;;;31.13;13.00;;;;;;;12.47;100.00;98489.69;5054953;28;20173;-86
2022/04/25 02:29:39;;;;;;;29.47;13.43;;;;;;;10.74;100.00;98185.78;5055429;28;20227;-86
2022/04/25 02:32:05;;;;;;;31.87;13.40;;;;;;;10.65;100.00;98158.59;5054933;28;20177;-85
2022/04/25 02:34:31;;;;;;;30.00;14.23;;;;;;;12.62;100.00;98478.16;5055520;28;20509;-85
2022/04/25 02:36:57;;;;;;;30.30;13.07;;;;;;;12.87;100.00;98530.31;5054881;28;20201;-86
2022/04/25 02:39:23;;;;;;;31.77;13.17;;;;;;;11.42;100.00;98296.25;5053632;28;20201;-86
2022/04/25 02:41:49;;;;;;;29.63;13.37;;;;;;;11.23;100.00;98283.16;5053502;28;20206;-86
2022/04/25 02:44:15;;;;;;;29.17;13.53;;;;;;;11.88;100.00;98366.59;5055192;28;20585;-85
2022/04/25 02:46:40;;;;;;;33.23;13.87;;;;;;;11.72;100.00;98355.28;5054439;28;20264;-84
2022/04/25 02:49:06;;;;;;;31.20;13.63;;;;;;;12.44;100.00;98481.16;5055686;28;20231;-86
2022/04/25 02:51:31;;;;;;;28.57;13.87;;;;;;;12.50;100.00;98479.59;5054242;28;20196;-87
2022/04/25 02:53:56;;;;;;;31.60;13.87;;;;;;;11.38;100.00;98304.59;5056080;28;20259;-86
2022/04/25 02:56:22;;;;;;;29.40;13.97;;;;;;;10.89;100.00;98214.84;5055140;28;20228;-86
2022/04/25 02:58:47;;;;;;;29.03;13.27;;;;;;;11.88;100.00;98371.66;5054812;28;20173;-86
2022/04/25 03:01:13;;;;;;;29.37;13.57;;;;;;;10.00;100.00;98069.31;5052617;28;20212;-85
2022/04/25 03:03:38;;;;;;;37.17;13.97;;;;;;;10.63;100.00;98196.50;5054590;28;20174;-86
2022/04/25 03:06:06;;;;;;;34.63;13.93;;;;;;;11.01;100.00;98265.78;5054251;28;20176;-86
2022/04/25 03:08:33;;;;;;;32.93;14.03;;;;;;;11.37;100.00;98330.78;5053956;28;20177;-85
2022/04/25 03:10:58;;;;;;;31.57;14.57;;;;;;;10.63;100.00;98213.34;5053310;28;20227;-85
2022/04/25 03:13:24;;;;;;;31.57;14.33;;;;;;;10.23;100.00;98163.47;5053157;28;20178;-85
2022/04/25 03:15:50;;;;;;;33.47;14.60;;;;;;;12.98;100.00;98605.06;5054062;28;20655;-86
2022/04/25 03:18:24;;;;;;;30.57;14.13;;;;;;;12.98;100.00;98610.16;5054707;28;20176;-86
2022/04/25 03:20:51;;;;;;;30.63;13.67;;;;;;;12.70;100.00;98559.56;5054627;28;20581;-86
2022/04/25 03:23:18;;;;;;;31.43;12.93;;;;;;;12.27;100.00;98479.09;5054005;28;20197;-86
2022/04/25 03:25:45;;;;;;;32.73;13.13;;;;;;;11.65;100.00;98366.91;5053810;28;20239;-86
2022/04/25 03:28:11;;;;;;;38.07;14.67;;;;;;;12.15;100.00;98473.72;5054309;28;20169;-86
2022/04/25 03:30:37;;;;;;;33.17;14.93;;;;;;;13.00;100.00;98618.66;5054057;28;20744;-86
2022/04/25 03:33:03;;;;;;;29.90;14.93;;;;;;;11.70;100.00;98379.75;5054812;28;20173;-86
2022/04/25 03:35:30;;;;;;;36.10;15.30;;;;;;;13.04;100.00;98607.75;5052927;28;20184;-85
2022/04/25 03:37:57;;;;;;;35.30;15.50;;;;;;;11.76;100.00;98397.59;5053593;28;20165;-86
2022/04/25 03:40:23;;;;;;;36.77;16.00;;;;;;;12.42;100.00;98541.19;5053045;28;20197;-85
2022/04/25 03:42:49;;;;;;;32.57;15.80;;;;;;;10.98;100.00;98305.34;5053936;28;20162;-86
2022/04/25 03:45:16;;;;;;;35.10;16.37;;;;;;;12.61;100.00;98607.63;5053792;28;20561;-86
2022/04/25 03:47:43;;;;;;;38.77;15.97;;;;;;;12.82;100.00;98603.03;5053676;28;20633;-85
2022/04/25 03:50:10;;;;;;;33.60;15.90;;;;;;;12.95;100.00;98605.84;5053689;28;20201;-86
2022/04/25 03:52:37;;;;;;;32.43;17.30;;;;;;;12.20;100.00;98563.50;5053586;28;20165;-86
2022/04/25 03:57:51;;;;;;;35.80;19.33;;;;;;;12.66;100.00;98603.50;5054243;28;20699;-86
2022/04/25 04:00:17;;;;;;;34.17;16.10;;;;;;;12.72;100.00;98606.16;5054167;28;20169;-86
2022/04/25 04:02:43;;;;;;;31.13;13.87;;;;;;;11.77;100.00;98437.34;5053287;28;20684;-85
2022/04/25 04:05:09;;;;;;;30.73;13.13;;;;;;;11.63;100.00;98393.91;5054511;28;20645;-85
2022/04/25 04:07:34;;;;;;;28.57;14.00;;;;;;;9.73;100.00;98062.72;5055440;28;20168;-84
2022/04/25 04:10:00;;;;;;;30.13;14.20;;;;;;;12.71;100.00;98539.31;5054613;28;20172;-84
2022/04/25 04:12:32;;;;;;;33.90;13.87;;;;;;;12.47;100.00;98502.38;5053853;28;20169;-85
2022/04/25 04:14:58;;;;;;;33.60;13.70;;;;;;;10.90;100.00;98241.88;5053050;28;20283;-85
2022/04/25 04:17:25;;;;;;;29.80;13.97;;;;;;;12.09;100.00;98408.50;5053026;28;20669;-84
2022/04/25 04:19:53;;;;;;;30.53;13.77;;;;;;;11.95;100.00;98392.13;5050838;28;20614;-84
2022/04/25 04:22:21;;;;;;;31.77;13.60;;;;;;;13.39;100.00;98588.13;5074830;28;20569;-85
2022/04/25 04:24:46;;;;;;;32.37;13.53;;;;;;;11.50;100.00;98254.19;5070054;28;20570;-85
2022/04/25 04:27:14;;;;;;;29.23;12.20;;;;;;;11.93;100.00;98314.28;5051592;28;20173;-84
2022/04/25 04:29:40;;;;;;;31.27;13.30;;;;;;;13.63;100.00;98577.56;5051452;28;20175;-85
2022/04/25 04:32:06;;;;;;;38.10;21.63;;;;;;;12.04;100.00;98298.47;5054053;28;20252;-86
2022/04/25 04:34:32;;;;;;;33.00;15.20;;;;;;;11.56;100.00;98183.38;5053446;28;20208;-85
2022/04/25 04:36:59;;;;;;;24.00;12.80;;;;;;;12.85;100.00;98389.72;5052581;28;20196;-85
2022/04/25 04:39:24;;;;;;;25.17;12.73;;;;;;;11.27;100.00;98127.03;5052750;28;20632;-87
2022/04/25 04:41:49;;;;;;;25.13;12.40;;;;;;;11.00;100.00;98069.09;5052637;28;20165;-85
2022/04/25 04:44:15;;;;;;;24.83;12.50;;;;;;;13.32;100.00;98424.47;5052650;28;20630;-85
2022/04/25 04:46:41;;;;;;;31.50;12.73;;;;;;;11.92;100.00;98161.28;5051598;28;20177;-84
2022/04/25 04:49:06;;;;;;;32.20;12.90;;;;;;;14.56;100.00;98579.16;5052832;28;20162;-85
2022/04/25 04:51:32;;;;;;;31.63;13.63;;;;;;;14.06;99.26;98463.81;5052812;28;20177;-84
2022/04/25 04:54:01;;;;;;;27.77;13.00;;;;;;;13.07;98.48;98287.69;5052928;28;20189;-85
2022/04/25 04:56:29;;;;;;;25.60;12.90;;;;;;;14.87;98.58;98574.50;5045762;28;20262;-86
2022/04/25 04:58:54;;;;;;;26.67;13.10;;;;;;;13.92;97.00;98368.63;5039423;28;20212;-85
2022/04/25 05:01:20;;;;;;;28.43;13.43;;;;;;;14.56;96.36;98445.84;5052596;28;20544;-86
2022/04/25 05:03:45;;;;;;;27.00;12.70;;;;;;;14.50;94.81;98416.06;5052258;28;20556;-86
2022/04/25 05:06:11;;;;;;;33.30;13.13;;;;;;;13.63;94.61;98316.47;5052102;28;20173;-86
2022/04/25 05:08:37;;;;;;;30.77;17.43;;;;;;;14.37;96.37;98444.78;5052371;28;20186;-86
2022/04/25 05:11:03;;;;;;;32.33;14.53;;;;;;;14.15;98.18;98453.78;5052879;28;20614;-85
2022/04/25 05:13:31;;;;;;;36.53;14.30;;;;;;;12.83;96.64;98211.03;5052154;28;20218;-86
2022/04/25 05:15:56;;;;;;;36.63;14.20;;;;;;;15.27;97.07;98607.31;5051745;28;20228;-86
2022/04/25 05:18:22;;;;;;;31.30;14.40;;;;;;;13.26;97.84;98315.09;5051972;28;20161;-86
2022/04/25 05:20:47;;;;;;;29.17;13.27;;;;;;;14.90;95.65;98564.34;5052378;28;20760;-86
2022/04/25 05:23:13;;;;;;;28.83;13.80;;;;;;;14.28;93.55;98370.81;5054111;28;20651;-85
2022/04/25 05:25:39;;;;;;;30.20;13.67;;;;;;;14.61;92.48;98409.41;5050969;28;20256;-85
2022/04/25 05:28:05;;;;;;;31.40;14.27;;;;;;;15.33;95.48;98638.84;5065900;28;20189;-86
2022/04/25 05:30:31;;;;;;;29.93;14.40;;;;;;;14.11;97.09;98452.03;5049685;28;20209;-86
2022/04/25 05:32:58;;;;;;;30.00;13.43;;;;;;;15.41;96.02;98656.78;5064535;28;20157;-83
2022/04/25 05:35:29;;;;;;;31.20;14.33;;;;;;;14.30;98.54;98529.53;5059158;28;20278;-86
2022/04/25 05:37:55;;;;;;;22.20;12.30;;;;;;;14.62;95.81;98581.81;5056236;28;20201;-87
2022/04/25 05:40:22;;;;;;;28.73;12.23;;;;;;;13.11;97.24;98392.75;5054349;28;20252;-85
2022/04/25 05:42:49;;;;;;;30.27;14.90;;;;;;;12.29;99.52;98270.22;5053804;28;20253;-86
2022/04/25 05:45:20;;;;;;;39.03;18.07;;;;;;;14.43;96.81;98530.56;5052016;28;20192;-86
2022/04/25 05:47:46;;;;;;;34.43;19.93;;;;;;;15.75;93.74;98694.66;5052244;28;20165;-86
2022/04/25 05:52:58;;;;;;;30.40;12.70;;;;;;;13.89;97.59;98477.13;5056446;28;20676;-86
2022/04/25 05:55:24;;;;;;;31.43;14.37;;;;;;;14.63;100.00;98672.69;5056079;28;20177;-85
2022/04/25 05:57:50;;;;;;;21.57;12.20;;;;;;;14.80;100.00;98674.63;5054443;28;20267;-86
2022/04/25 06:00:24;;;;;;;25.43;12.67;;;;;;;14.25;100.00;98607.53;5050959;28;20173;-86
2022/04/25 06:02:49;;;;;;;24.40;11.43;;;;;;;12.54;100.00;98322.28;5047535;28;20547;-86
2022/04/25 06:05:15;;;;;;;20.90;10.70;;;;;;;11.48;100.00;98101.28;5060791;28;20191;-85
2022/04/25 06:07:43;;;;;;;26.60;11.47;;;;;;;14.96;99.88;98666.38;5056618;28;20227;-85
2022/04/25 06:10:14;;;;;;;24.77;10.83;;;;;;;14.99;97.03;98676.63;5063650;28;20279;-86
2022/04/25 06:12:45;;;;;;;19.70;10.63;;;;;;;13.79;97.50;98432.88;5027701;28;20335;-85
2022/04/25 06:15:10;;;;;;;23.90;11.10;;;;;;;13.91;97.69;98443.25;5031897;28;20221;-86
2022/04/25 06:17:37;;;;;;;24.73;11.43;;;;;;;15.59;96.89;98677.47;5030583;28;20224;-86
2022/04/25 06:20:04;;;;;;;20.50;11.50;;;;;;;15.58;97.52;98669.78;5048561;28;20186;-86
2022/04/25 06:22:30;;;;;;;23.47;12.40;;;;;;;14.17;96.73;98410.53;5030619;28;20201;-89
2022/04/25 06:24:55;;;;;;;31.17;12.03;;;;;;;15.87;93.63;98607.19;5038461;28;20554;-85
2022/04/25 06:27:20;;;;;;;29.37;10.93;;;;;;;16.25;91.25;98646.69;5030436;28;20193;-85
2022/04/25 06:29:46;;;;;;;28.80;11.20;;;;;;;15.47;88.68;98417.13;5031806;28;20185;-84
2022/04/25 06:32:13;;;;;;;27.23;11.10;;;;;;;16.79;87.98;98659.06;5031837;28;20182;-84
2022/04/25 06:34:39;;;;;;;21.90;10.10;;;;;;;17.24;84.51;98655.09;5031537;28;20189;-85
2022/04/25 06:37:05;;;;;;;21.17;9.53;;;;;;;16.17;81.75;98461.91;5031953;28;20244;-86
2022/04/25 06:39:31;;;;;;;21.77;9.63;;;;;;;16.20;82.55;98519.81;5033215;28;20189;-82
2022/04/25 06:41:56;;;;;;;21.47;9.87;;;;;;;17.35;82.42;98658.56;5031708;28;20186;-86
2022/04/25 06:44:22;;;;;;;22.27;9.50;;;;;;;17.37;81.11;98650.03;5032984;28;20190;-84
2022/04/25 06:46:47;;;;;;;21.03;9.17;;;;;;;16.63;80.96;98536.28;5033380;28;20193;-85
2022/04/25 06:49:24;;;;;;;27.27;10.03;;;;;;;17.47;80.73;98658.63;5032227;28;20189;-85
2022/04/25 06:51:58;;;;;;;17.40;8.47;;;;;;;16.15;81.83;98541.91;5032690;28;20264;-85
2022/04/25 06:54:24;;;;;;;19.37;9.17;;;;;;;16.59;82.26;98601.00;5033754;28;20269;-85
2022/04/25 06:56:51;;;;;;;22.63;9.37;;;;;;;17.50;79.70;98661.16;5030270;28;20214;-84
2022/04/25 06:59:16;;;;;;;22.63;9.80;;;;;;;16.71;79.04;98499.69;5032310;28;20229;-85
2022/04/25 07:01:42;;;;;;;28.63;13.20;;;;;;;18.15;75.28;98631.53;5046685;28;20609;-85
2022/04/25 07:04:09;;;;;;;23.33;9.50;;;;;;;18.19;75.44;98663.97;5031974;28;20261;-85
2022/04/25 07:06:34;;;;;;;19.10;8.70;;;;;;;18.34;73.83;98649.47;5031812;28;20281;-84
2022/04/25 07:09:00;;;;;;;24.27;9.37;;;;;;;18.88;71.75;98646.06;5031863;28;20273;-85
2022/04/25 07:11:25;;;;;;;24.17;10.07;;;;;;;18.73;70.47;98567.47;5043059;28;20673;-85
2022/04/25 07:13:51;;;;;;;26.33;10.10;;;;;;;19.23;69.34;98629.72;5020923;28;20603;-86
2022/04/25 07:16:16;;;;;;;22.57;9.87;;;;;;;19.43;67.92;98622.84;5031171;28;20296;-86
2022/04/25 07:18:42;;;;;;;23.27;9.20;;;;;;;18.76;66.72;98457.19;5035737;28;20670;-85
2022/04/25 07:29:23;;;;;;;24.90;10.60;;;;;;;19.79;65.58;98585.00;5033496;28;20285;-82
2022/04/25 07:31:51;;;;;;;25.40;10.20;;;;;;;18.39;66.46;98347.94;5031061;28;20694;-87
2022/04/25 07:34:20;;;;;;;18.60;8.13;;;;;;;18.95;66.79;98499.88;5031862;28;20182;-83
2022/04/25 07:36:51;;;;;;;20.33;9.40;;;;;;;17.32;72.05;98359.22;5032962;28;20197;-85
2022/04/25 07:39:20;;;;;;;16.87;8.43;;;;;;;19.17;68.51;98539.09;5032798;28;20191;-82
2022/04/25 07:41:47;;;;;;;23.70;8.80;;;;;;;18.79;68.07;98539.22;5035167;28;20178;-85
2022/04/25 07:44:12;;;;;;;19.07;8.57;;;;;;;19.61;67.00;98570.59;5034365;28;20662;-84
2022/04/25 07:46:40;;;;;;;19.37;8.13;;;;;;;19.60;65.63;98538.06;5033914;28;20244;-85
2022/04/25 07:49:09;;;;;;;17.97;8.53;;;;;;;18.70;68.41;98549.53;5035463;28;20624;-83
2022/04/25 07:51:42;;;;;;;20.83;8.20;;;;;;;19.05;66.71;98552.84;5032296;28;20940;-83
2022/04/25 07:54:09;;;;;;;19.23;7.80;;;;;;;19.35;64.01;98500.50;5032230;28;20206;-85
2022/04/25 07:56:38;;;;;;;18.53;7.40;;;;;;;20.12;63.12;98609.63;5034320;28;20701;-85
2022/04/25 07:59:05;;;;;;;14.53;6.77;;;;;;;18.07;64.77;98371.13;5032058;28;20186;-83
2022/04/25 08:01:33;;;;;;;16.00;7.33;;;;;;;18.57;67.93;98547.84;5033714;28;20184;-84
2022/04/25 08:03:59;;;;;;;15.97;8.60;;;;;;;19.56;65.47;98551.75;5030412;28;20192;-85
2022/04/25 08:06:25;;;;;;;17.93;7.70;;;;;;;20.34;62.51;98565.78;5031868;28;20178;-84
2022/04/25 08:08:51;;;;;;;22.73;7.17;;;;;;;20.95;60.37;98572.91;5031515;28;20192;-86
2022/04/25 08:11:18;;;;;;;19.67;7.07;;;;;;;19.92;59.84;98417.06;5031713;28;20185;-86
2022/04/25 08:19:13;;;;;;;18.30;6.70;;;;;;;20.40;59.13;98488.63;5031868;28;20677;-85
2022/04/25 08:21:40;;;;;;;17.07;7.00;;;;;;;21.09;58.88;98561.63;5031313;28;20260;-85
2022/04/25 08:24:05;;;;;;;22.93;7.20;;;;;;;20.55;60.04;98563.00;5046789;28;20193;-85
2022/04/25 08:26:31;;;;;;;19.93;7.07;;;;;;;20.51;59.90;98502.22;5016179;28;20230;-83
2022/04/25 08:28:56;;;;;;;19.80;7.00;;;;;;;21.11;58.86;98587.34;5030670;28;20182;-85
2022/04/25 08:31:22;;;;;;;23.20;6.70;;;;;;;21.01;57.42;98441.59;5031599;28;20341;-85
2022/04/25 08:33:48;;;;;;;19.37;6.80;;;;;;;21.10;55.43;98432.03;5029005;28;20196;-85
2022/04/25 08:36:16;;;;;;;20.60;6.57;;;;;;;22.81;53.55;98583.97;5027718;28;20700;-85
2022/04/25 08:38:43;;;;;;;17.87;6.30;;;;;;;22.41;52.36;98425.63;5031143;28;20180;-85
2022/04/25 08:41:10;;;;;;;19.63;5.93;;;;;;;23.20;51.17;98483.38;5029791;28;20189;-86
2022/04/25 08:43:39;;;;;;;14.33;6.07;;;;;;;23.00;49.68;98431.31;5030884;28;20269;-83
2022/04/25 08:46:07;;;;;;;18.80;6.17;;;;;;;23.07;50.45;98461.28;5028916;28;20186;-83
2022/04/25 08:48:34;;;;;;;14.33;5.90;;;;;;;22.67;50.43;98469.84;5029015;28;20197;-86
2022/04/25 08:51:00;;;;;;;15.37;5.87;;;;;;;22.65;50.96;98502.56;5031204;28;20277;-86
2022/04/25 08:53:27;;;;;;;17.57;6.27;;;;;;;22.33;53.40;98582.22;5029609;28;20737;-86
2022/04/25 08:55:54;;;;;;;16.57;6.37;;;;;;;22.27;53.50;98588.34;5029573;28;20185;-86
2022/04/25 08:58:21;;;;;;;19.17;6.50;;;;;;;21.66;52.30;98402.88;5029670;28;20861;-86
2022/04/25 09:00:47;;;;;;;20.43;6.77;;;;;;;23.23;51.26;98578.88;5027714;28;20225;-82
2022/04/25 09:03:13;;;;;;;22.00;6.60;;;;;;;22.54;51.06;98452.00;5027989;28;20221;-82
2022/04/25 09:05:38;;;;;;;17.83;6.87;;;;;;;23.62;49.37;98505.72;5028186;28;20190;-83
2022/04/25 09:08:04;;;;;;;19.33;5.80;;;;;;;24.81;46.98;98576.94;5027223;28;20209;-85
2022/04/25 09:10:30;;;;;;;21.17;6.17;;;;;;;23.28;49.43;98571.88;5027600;28;20174;-84
2022/04/25 09:12:56;;;;;;;24.50;5.97;;;;;;;23.22;49.08;98479.03;5018336;28;20299;-84
2022/04/25 09:15:23;;;;;;;19.17;5.90;;;;;;;22.10;50.06;98447.66;5027782;28;20218;-84
2022/04/25 09:17:49;;;;;;;23.30;6.10;;;;;;;22.94;50.25;98563.13;5027796;28;20217;-85
2022/04/25 09:20:14;;;;;;;20.07;6.40;;;;;;;23.56;48.55;98521.34;5026692;28;20676;-87
2022/04/25 09:22:40;;;;;;;18.87;6.27;;;;;;;23.98;47.24;98519.53;5027257;28;20178;-82
2022/04/25 09:25:11;;;;;;;24.07;7.70;;;;;;;24.61;46.61;98553.31;5027894;28;20209;-84
2022/04/25 09:27:37;;;;;;;22.30;6.57;;;;;;;25.00;45.10;98552.25;5026895;28;20189;-84
2022/04/25 09:30:16;;;;;;;20.17;6.20;;;;;;;25.01;46.45;98548.78;5026374;28;20178;-84
2022/04/25 09:32:43;;;;;;;20.60;6.40;;;;;;;24.26;46.09;98492.09;5027310;28;20285;-84
2022/04/25 09:35:30;;;;;;;25.40;6.20;;;;;;;24.95;45.52;98542.91;5028338;28;20257;-87
2022/04/25 09:37:57;;;;;;;16.87;6.03;;;;;;;24.97;44.30;98541.97;5027016;28;20233;-85
2022/04/25 09:40:27;;;;;;;16.43;6.10;;;;;;;24.79;44.64;98500.16;5028011;28;20197;-84
2022/04/25 09:43:08;;;;;;;17.33;5.57;;;;;;;25.50;43.27;98544.78;5027382;28;20182;-86
2022/04/25 09:45:37;;;;;;;20.67;6.30;;;;;;;25.78;42.40;98537.88;5025966;28;20228;-84
2022/04/25 09:48:17;;;;;;;23.20;6.53;;;;;;;26.09;41.14;98537.75;5024973;28;20284;-84
2022/04/25 09:50:44;;;;;;;23.50;6.53;;;;;;;25.23;42.51;98460.91;5027254;28;20186;-84
2022/04/25 09:53:10;;;;;;;22.00;6.00;;;;;;;25.45;42.86;98531.09;5026585;28;20182;-85
2022/04/25 09:55:38;;;;;;;17.50;6.23;;;;;;;25.40;43.70;98530.38;5027542;28;20672;-84
2022/04/25 09:58:23;;;;;;;16.93;6.03;;;;;;;25.74;42.06;98512.91;5027121;28;20309;-85
2022/04/25 10:00:53;;;;;;;22.40;7.20;;;;;;;25.63;42.39;98457.97;5025923;28;20187;-84
2022/04/25 10:03:32;;;;;;;18.37;7.13;;;;;;;26.01;42.28;98517.25;5027517;28;20178;-87
2022/04/25 10:06:02;;;;;;;16.83;6.20;;;;;;;24.64;44.45;98449.66;5028095;28;20628;-81
2022/04/25 10:08:28;;;;;;;19.13;6.13;;;;;;;24.68;45.43;98466.81;5024388;28;20186;-85
2022/04/25 10:10:56;;;;;;;17.43;6.20;;;;;;;25.33;44.85;98487.38;5026782;28;20589;-84
2022/04/25 10:13:21;;;;;;;17.20;6.33;;;;;;;25.29;44.91;98449.53;5015675;28;20725;-84
2022/04/25 10:15:47;;;;;;;18.27;7.00;;;;;;;25.81;43.65;98509.25;5026965;28;20226;-86
2022/04/25 10:18:14;;;;;;;20.65;6.63;;;;;;;26.05;43.85;98507.59;5024815;28;20198;-83
2022/04/25 10:20:43;;;;;;;22.15;7.32;;;;;;;25.87;44.09;98503.03;5026371;28;20190;-85
2022/04/25 10:23:10;;;;;;;21.98;6.80;;;;;;;25.95;43.26;98486.31;5027388;28;20266;-83
2022/04/25 10:25:45;;;;;;;17.25;6.70;;;;;;;26.23;42.81;98488.88;5026851;28;20638;-84
2022/04/25 10:28:19;;;;;;;20.58;6.60;;;;;;;25.43;41.85;98354.91;5040390;28;20203;-85
2022/04/25 10:30:50;;;;;;;19.58;6.70;;;;;;;26.72;41.45;98514.00;5026889;28;20184;-85
2022/04/25 10:33:22;;;;;;;19.58;6.85;;;;;;;26.46;42.22;98503.66;5029266;28;20192;-84
2022/04/25 10:35:50;;;;;;;17.98;7.20;;;;;;;26.24;41.33;98509.59;5027688;28;20183;-85
2022/04/25 10:44:17;;;;;;;20.23;7.38;;;;;;;25.80;43.08;98486.81;5031673;28;20218;-85
2022/04/25 10:47:11;;;;;;;18.48;7.25;;;;;;;25.80;43.60;98489.41;5046516;28;20202;-85
2022/04/25 10:49:46;;;;;;;19.42;7.32;;;;;;;25.41;43.73;98488.03;5031851;28;20240;-85
2022/04/25 10:52:33;;;;;;;14.95;7.10;;;;;;;26.04;43.03;98486.00;5031515;28;20177;-85
2022/04/25 10:55:23;;;;;;;22.92;7.90;;;;;;;26.71;42.18;98483.72;5032164;28;20182;-87
2022/04/25 10:58:04;;;;;;;20.83;7.70;;;;;;;26.81;42.39;98487.75;5032845;28;20299;-87
2022/04/25 11:00:41;;;;;;;18.55;7.95;;;;;;;26.75;42.16;98480.13;5047813;28;20669;-87
2022/04/25 11:03:13;;;;;;;20.30;7.70;;;;;;;26.57;42.34;98479.03;5028349;28;20196;-86
2022/04/25 11:05:43;;;;;;;19.35;7.18;;;;;;;26.63;42.74;98477.97;5025159;28;20846;-85
2022/04/25 11:08:20;;;;;;;16.95;6.78;;;;;;;26.77;41.75;98479.16;5026302;28;20271;-85
2022/04/25 11:10:57;;;;;;;24.02;7.00;;;;;;;26.08;42.70;98479.81;5035521;28;20189;-86
2022/04/25 11:13:26;;;;;;;20.05;7.05;;;;;;;26.27;42.22;98477.47;5026247;28;20204;-86
2022/04/25 11:15:57;;;;;;;18.65;6.97;;;;;;;26.06;42.03;98421.09;5028588;28;20229;-85
2022/04/25 11:18:41;;;;;;;20.98;7.30;;;;;;;26.46;42.21;98473.34;5014190;28;20185;-86
2022/04/25 11:21:13;;;;;;;19.33;6.93;;;;;;;26.57;41.17;98479.03;5030523;28;20232;-85
2022/04/25 11:23:44;;;;;;;23.02;7.25;;;;;;;26.67;41.00;98471.75;5020971;28;20199;-85
2022/04/25 11:26:11;;;;;;;21.15;7.22;;;;;;;26.99;40.60;98468.00;5016957;28;20191;-84
2022/04/25 11:29:12;;;;;;;19.83;7.10;;;;;;;27.66;39.20;98469.72;5030368;28;20182;-85
2022/04/25 11:31:39;;;;;;;18.98;6.82;;;;;;;27.93;38.79;98470.38;5007691;28;20219;-85
2022/04/25 11:34:07;;;;;;;21.10;6.43;;;;;;;28.07;37.35;98439.47;5007462;28;20655;-85
2022/04/25 11:36:44;;;;;;;23.30;6.80;;;;;;;28.56;36.11;98433.84;5009830;28;20689;-84
2022/04/25 11:41:57;;;;;;;21.23;6.93;;;;;;;29.42;34.06;98391.69;5008804;28;20242;-87
2022/04/25 11:44:23;;;;;;;17.92;6.18;;;;;;;29.43;33.07;98372.47;5012023;28;20183;-87
2022/04/25 11:46:49;;;;;;;20.92;6.43;;;;;;;28.53;34.58;98371.47;5010966;28;20205;-87
2022/04/25 11:49:40;;;;;;;17.10;6.53;;;;;;;28.87;34.73;98464.59;5009139;28;20281;-87
2022/04/25 11:52:06;;;;;;;28.20;6.45;;;;;;;28.40;34.09;98338.22;5008445;28;20196;-85
2022/04/25 11:54:33;;;;;;;22.52;7.18;;;;;;;29.68;33.29;98457.31;5006764;28;20266;-84
2022/04/25 11:57:03;;;;;;;32.67;8.77;;;;;;;30.10;32.45;98456.16;4990917;28;20213;-82